sensor_id;sensor_type;location;lat;lon;timestamp;P1;durP1;ratioP1;P2;durP2;ratioP2
62790;SDS011;48830;53.426;10.300;2023-04-01T00:02:23;6.82;;;3.88;;
62790;SDS011;48830;53.426;10.300;2023-04-01T00:04:48;10.55;;;4.20;;
62790;SDS011;48830;53.426;10.300;2023-04-01T00:07:14;8.40;;;4.07;;
62790;SDS011;48830;53.426;10.300;2023-04-01T00:09:39;8.68;;;4.07;;
62790;SDS011;48830;53.426;10.300;2023-04-01T00:12:05;10.32;;;4.45;;
62790;SDS011;48830;53.426;10.300;2023-04-01T00:14:30;8.90;;;4.25;;
62790;SDS011;48830;53.426;10.300;2023-04-01T00:16:56;9.70;;;3.95;;
62790;SDS011;48830;53.426;10.300;2023-04-01T00:19:21;8.43;;;3.80;;
62790;SDS011;48830;53.426;10.300;2023-04-01T00:21:47;8.40;;;3.58;;
62790;SDS011;48830;53.426;10.300;2023-04-01T00:24:13;8.38;;;3.92;;
62790;SDS011;48830;53.426;10.300;2023-04-01T00:26:38;8.90;;;4.07;;
62790;SDS011;48830;53.426;10.300;2023-04-01T00:29:05;9.20;;;4.00;;
62790;SDS011;48830;53.426;10.300;2023-04-01T00:31:32;9.95;;;4.05;;
62790;SDS011;48830;53.426;10.300;2023-04-01T00:33:57;7.78;;;4.18;;
62790;SDS011;48830;53.426;10.300;2023-04-01T00:36:23;7.43;;;3.58;;
62790;SDS011;48830;53.426;10.300;2023-04-01T00:38:49;9.90;;;4.10;;
62790;SDS011;48830;53.426;10.300;2023-04-01T00:41:15;12.55;;;4.53;;
62790;SDS011;48830;53.426;10.300;2023-04-01T00:43:42;7.43;;;3.80;;
62790;SDS011;48830;53.426;10.300;2023-04-01T00:46:10;8.32;;;3.90;;
62790;SDS011;48830;53.426;10.300;2023-04-01T00:48:36;7.75;;;3.85;;
62790;SDS011;48830;53.426;10.300;2023-04-01T00:51:16;10.32;;;4.30;;
62790;SDS011;48830;53.426;10.300;2023-04-01T00:53:47;9.20;;;3.85;;
62790;SDS011;48830;53.426;10.300;2023-04-01T00:56:22;9.05;;;4.00;;
62790;SDS011;48830;53.426;10.300;2023-04-01T00:58:54;8.10;;;4.00;;
62790;SDS011;48830;53.426;10.300;2023-04-01T01:01:25;7.50;;;4.00;;
62790;SDS011;48830;53.426;10.300;2023-04-01T01:03:51;9.93;;;3.60;;
62790;SDS011;48830;53.426;10.300;2023-04-01T01:16:45;10.00;;;4.60;;
62790;SDS011;48830;53.426;10.300;2023-04-01T01:21:51;7.70;;;4.05;;
62790;SDS011;48830;53.426;10.300;2023-04-01T01:35:16;14.15;;;4.18;;
62790;SDS011;48830;53.426;10.300;2023-04-01T01:37:45;10.63;;;4.20;;
62790;SDS011;48830;53.426;10.300;2023-04-01T01:40:12;11.23;;;4.15;;
62790;SDS011;48830;53.426;10.300;2023-04-01T01:42:42;9.15;;;3.92;;
62790;SDS011;48830;53.426;10.300;2023-04-01T01:45:12;8.10;;;3.85;;
62790;SDS011;48830;53.426;10.300;2023-04-01T01:47:39;9.15;;;4.03;;
62790;SDS011;48830;53.426;10.300;2023-04-01T01:50:06;7.53;;;3.72;;
62790;SDS011;48830;53.426;10.300;2023-04-01T01:52:33;9.43;;;3.88;;
62790;SDS011;48830;53.426;10.300;2023-04-01T01:54:59;8.93;;;3.85;;
62790;SDS011;48830;53.426;10.300;2023-04-01T01:57:33;7.53;;;3.30;;
62790;SDS011;48830;53.426;10.300;2023-04-01T02:00:08;8.38;;;3.60;;
62790;SDS011;48830;53.426;10.300;2023-04-01T02:02:44;10.70;;;3.88;;
62790;SDS011;48830;53.426;10.300;2023-04-01T02:05:14;9.23;;;3.60;;
62790;SDS011;48830;53.426;10.300;2023-04-01T02:07:46;8.80;;;3.60;;
62790;SDS011;48830;53.426;10.300;2023-04-01T02:10:17;8.82;;;3.55;;
62790;SDS011;48830;53.426;10.300;2023-04-01T02:12:45;9.52;;;3.88;;
62790;SDS011;48830;53.426;10.300;2023-04-01T02:15:13;8.80;;;3.70;;
62790;SDS011;48830;53.426;10.300;2023-04-01T02:17:42;8.95;;;3.78;;
62790;SDS011;48830;53.426;10.300;2023-04-01T02:22:48;10.25;;;3.45;;
62790;SDS011;48830;53.426;10.300;2023-04-01T02:25:24;8.18;;;3.75;;
62790;SDS011;48830;53.426;10.300;2023-04-01T02:27:52;7.93;;;3.78;;
62790;SDS011;48830;53.426;10.300;2023-04-01T02:30:20;8.60;;;3.28;;
62790;SDS011;48830;53.426;10.300;2023-04-01T02:32:46;8.00;;;3.43;;
62790;SDS011;48830;53.426;10.300;2023-04-01T02:35:13;9.98;;;3.90;;
62790;SDS011;48830;53.426;10.300;2023-04-01T02:37:41;8.03;;;4.33;;
62790;SDS011;48830;53.426;10.300;2023-04-01T02:40:09;7.90;;;3.93;;
62790;SDS011;48830;53.426;10.300;2023-04-01T02:42:37;6.88;;;3.70;;
62790;SDS011;48830;53.426;10.300;2023-04-01T02:45:03;8.97;;;3.47;;
62790;SDS011;48830;53.426;10.300;2023-04-01T02:47:30;10.53;;;3.57;;
62790;SDS011;48830;53.426;10.300;2023-04-01T02:49:55;10.07;;;3.87;;
62790;SDS011;48830;53.426;10.300;2023-04-01T02:52:24;10.25;;;4.00;;
62790;SDS011;48830;53.426;10.300;2023-04-01T02:54:50;7.63;;;3.00;;
62790;SDS011;48830;53.426;10.300;2023-04-01T02:57:16;7.97;;;3.70;;
62790;SDS011;48830;53.426;10.300;2023-04-01T02:59:41;8.93;;;3.57;;
62790;SDS011;48830;53.426;10.300;2023-04-01T03:02:07;8.90;;;3.90;;
62790;SDS011;48830;53.426;10.300;2023-04-01T03:04:32;7.25;;;3.75;;
62790;SDS011;48830;53.426;10.300;2023-04-01T03:06:58;6.63;;;3.53;;
62790;SDS011;48830;53.426;10.300;2023-04-01T03:09:24;8.17;;;3.77;;
62790;SDS011;48830;53.426;10.300;2023-04-01T03:11:49;7.33;;;3.60;;
62790;SDS011;48830;53.426;10.300;2023-04-01T03:14:15;7.03;;;3.70;;
62790;SDS011;48830;53.426;10.300;2023-04-01T03:16:40;11.75;;;3.95;;
62790;SDS011;48830;53.426;10.300;2023-04-01T03:19:06;9.02;;;3.60;;
62790;SDS011;48830;53.426;10.300;2023-04-01T03:21:31;9.67;;;4.17;;
62790;SDS011;48830;53.426;10.300;2023-04-01T03:23:56;8.18;;;3.90;;
62790;SDS011;48830;53.426;10.300;2023-04-01T03:26:22;8.25;;;3.92;;
62790;SDS011;48830;53.426;10.300;2023-04-01T03:28:48;7.43;;;4.10;;
62790;SDS011;48830;53.426;10.300;2023-04-01T03:31:13;8.70;;;4.27;;
62790;SDS011;48830;53.426;10.300;2023-04-01T03:33:47;12.98;;;4.30;;
62790;SDS011;48830;53.426;10.300;2023-04-01T03:36:12;11.45;;;4.72;;
62790;SDS011;48830;53.426;10.300;2023-04-01T03:38:41;8.77;;;4.43;;
62790;SDS011;48830;53.426;10.300;2023-04-01T03:41:11;7.53;;;4.00;;
62790;SDS011;48830;53.426;10.300;2023-04-01T03:43:37;8.68;;;4.38;;
62790;SDS011;48830;53.426;10.300;2023-04-01T03:46:03;8.07;;;3.73;;
62790;SDS011;48830;53.426;10.300;2023-04-01T03:48:29;9.43;;;4.20;;
62790;SDS011;48830;53.426;10.300;2023-04-01T03:50:54;8.83;;;3.40;;
62790;SDS011;48830;53.426;10.300;2023-04-01T03:53:21;7.73;;;3.73;;
62790;SDS011;48830;53.426;10.300;2023-04-01T03:55:47;8.35;;;3.65;;
62790;SDS011;48830;53.426;10.300;2023-04-01T03:58:12;7.82;;;4.07;;
62790;SDS011;48830;53.426;10.300;2023-04-01T04:00:38;8.43;;;4.00;;
62790;SDS011;48830;53.426;10.300;2023-04-01T04:03:03;7.15;;;3.83;;
62790;SDS011;48830;53.426;10.300;2023-04-01T04:05:33;6.75;;;4.03;;
62790;SDS011;48830;53.426;10.300;2023-04-01T04:07:59;10.00;;;4.03;;
62790;SDS011;48830;53.426;10.300;2023-04-01T04:10:25;7.93;;;4.33;;
62790;SDS011;48830;53.426;10.300;2023-04-01T04:12:50;7.38;;;3.90;;
62790;SDS011;48830;53.426;10.300;2023-04-01T04:15:18;9.65;;;4.07;;
62790;SDS011;48830;53.426;10.300;2023-04-01T04:17:44;8.95;;;3.92;;
62790;SDS011;48830;53.426;10.300;2023-04-01T04:20:10;7.25;;;3.70;;
62790;SDS011;48830;53.426;10.300;2023-04-01T04:22:36;8.18;;;3.90;;
62790;SDS011;48830;53.426;10.300;2023-04-01T04:25:04;5.80;;;3.47;;
62790;SDS011;48830;53.426;10.300;2023-04-01T04:27:30;6.57;;;3.57;;
62790;SDS011;48830;53.426;10.300;2023-04-01T04:30:05;6.50;;;3.40;;
62790;SDS011;48830;53.426;10.300;2023-04-01T04:32:32;6.73;;;3.80;;
62790;SDS011;48830;53.426;10.300;2023-04-01T04:34:58;8.23;;;3.90;;
62790;SDS011;48830;53.426;10.300;2023-04-01T04:37:23;6.93;;;3.60;;
62790;SDS011;48830;53.426;10.300;2023-04-01T04:39:51;8.27;;;3.80;;
62790;SDS011;48830;53.426;10.300;2023-04-01T04:42:16;7.82;;;4.10;;
62790;SDS011;48830;53.426;10.300;2023-04-01T04:44:42;7.38;;;3.72;;
62790;SDS011;48830;53.426;10.300;2023-04-01T04:47:08;10.55;;;4.20;;
62790;SDS011;48830;53.426;10.300;2023-04-01T04:49:33;7.50;;;3.60;;
62790;SDS011;48830;53.426;10.300;2023-04-01T04:52:03;8.27;;;4.10;;
62790;SDS011;48830;53.426;10.300;2023-04-01T04:54:29;8.50;;;4.10;;
62790;SDS011;48830;53.426;10.300;2023-04-01T04:56:57;9.48;;;4.03;;
62790;SDS011;48830;53.426;10.300;2023-04-01T04:59:24;8.98;;;4.43;;
62790;SDS011;48830;53.426;10.300;2023-04-01T05:02:17;10.95;;;4.13;;
62790;SDS011;48830;53.426;10.300;2023-04-01T05:04:42;8.20;;;4.32;;
62790;SDS011;48830;53.426;10.300;2023-04-01T05:07:09;7.15;;;3.88;;
62790;SDS011;48830;53.426;10.300;2023-04-01T05:09:35;9.75;;;4.10;;
62790;SDS011;48830;53.426;10.300;2023-04-01T05:12:01;7.28;;;4.25;;
62790;SDS011;48830;53.426;10.300;2023-04-01T05:14:35;8.80;;;3.90;;
62790;SDS011;48830;53.426;10.300;2023-04-01T05:17:10;7.72;;;4.18;;
62790;SDS011;48830;53.426;10.300;2023-04-01T05:19:37;7.03;;;3.78;;
62790;SDS011;48830;53.426;10.300;2023-04-01T05:22:03;8.93;;;4.47;;
62790;SDS011;48830;53.426;10.300;2023-04-01T05:24:29;8.90;;;3.80;;
62790;SDS011;48830;53.426;10.300;2023-04-01T05:26:55;9.15;;;4.72;;
62790;SDS011;48830;53.426;10.300;2023-04-01T05:29:21;10.13;;;4.93;;
62790;SDS011;48830;53.426;10.300;2023-04-01T05:31:53;7.82;;;4.13;;
62790;SDS011;48830;53.426;10.300;2023-04-01T05:34:18;9.63;;;4.47;;
62790;SDS011;48830;53.426;10.300;2023-04-01T05:36:44;10.38;;;4.95;;
62790;SDS011;48830;53.426;10.300;2023-04-01T05:39:10;9.07;;;4.50;;
62790;SDS011;48830;53.426;10.300;2023-04-01T05:41:36;10.20;;;4.28;;
62790;SDS011;48830;53.426;10.300;2023-04-01T05:44:02;9.63;;;4.20;;
62790;SDS011;48830;53.426;10.300;2023-04-01T05:46:37;11.15;;;4.80;;
62790;SDS011;48830;53.426;10.300;2023-04-01T05:49:35;9.80;;;4.80;;
62790;SDS011;48830;53.426;10.300;2023-04-01T05:52:02;7.97;;;4.38;;
62790;SDS011;48830;53.426;10.300;2023-04-01T05:54:27;8.52;;;4.32;;
62790;SDS011;48830;53.426;10.300;2023-04-01T05:56:53;10.55;;;4.80;;
62790;SDS011;48830;53.426;10.300;2023-04-01T05:59:19;7.53;;;2.97;;
62790;SDS011;48830;53.426;10.300;2023-04-01T06:01:45;3.80;;;1.70;;
62790;SDS011;48830;53.426;10.300;2023-04-01T06:04:14;1.53;;;1.30;;
62790;SDS011;48830;53.426;10.300;2023-04-01T06:06:41;2.13;;;1.30;;
62790;SDS011;48830;53.426;10.300;2023-04-01T06:09:16;3.40;;;2.03;;
62790;SDS011;48830;53.426;10.300;2023-04-01T06:46:19;2.40;;;1.80;;
62790;SDS011;48830;53.426;10.300;2023-04-01T06:49:53;3.50;;;1.67;;
62790;SDS011;48830;53.426;10.300;2023-04-01T06:56:09;3.33;;;1.63;;
62790;SDS011;48830;53.426;10.300;2023-04-01T06:59:08;3.33;;;1.60;;
62790;SDS011;48830;53.426;10.300;2023-04-01T07:01:45;2.50;;;1.63;;
62790;SDS011;48830;53.426;10.300;2023-04-01T07:04:20;1.97;;;1.50;;
62790;SDS011;48830;53.426;10.300;2023-04-01T07:09:52;2.07;;;1.40;;
62790;SDS011;48830;53.426;10.300;2023-04-01T07:15:19;2.63;;;1.27;;
62790;SDS011;48830;53.426;10.300;2023-04-01T07:17:47;1.50;;;1.40;;
62790;SDS011;48830;53.426;10.300;2023-04-01T07:20:19;1.50;;;1.30;;
62790;SDS011;48830;53.426;10.300;2023-04-01T07:22:52;2.80;;;1.40;;
62790;SDS011;48830;53.426;10.300;2023-04-01T07:25:34;1.33;;;1.20;;
62790;SDS011;48830;53.426;10.300;2023-04-01T07:28:26;3.50;;;1.40;;
62790;SDS011;48830;53.426;10.300;2023-04-01T07:31:24;1.73;;;1.20;;
62790;SDS011;48830;53.426;10.300;2023-04-01T07:41:56;1.53;;;1.27;;
62790;SDS011;48830;53.426;10.300;2023-04-01T07:44:28;3.13;;;1.23;;
62790;SDS011;48830;53.426;10.300;2023-04-01T07:50:00;1.80;;;1.40;;
62790;SDS011;48830;53.426;10.300;2023-04-01T07:52:45;1.83;;;1.30;;
62790;SDS011;48830;53.426;10.300;2023-04-01T07:58:35;1.63;;;1.20;;
62790;SDS011;48830;53.426;10.300;2023-04-01T08:05:06;2.57;;;1.33;;
62790;SDS011;48830;53.426;10.300;2023-04-01T08:07:36;1.33;;;1.10;;
62790;SDS011;48830;53.426;10.300;2023-04-01T08:10:33;2.33;;;1.50;;
62790;SDS011;48830;53.426;10.300;2023-04-01T08:16:47;1.87;;;1.53;;
62790;SDS011;48830;53.426;10.300;2023-04-01T08:22:04;1.97;;;1.43;;
62790;SDS011;48830;53.426;10.300;2023-04-01T08:24:41;2.17;;;1.50;;
62790;SDS011;48830;53.426;10.300;2023-04-01T08:27:13;2.13;;;1.30;;
62790;SDS011;48830;53.426;10.300;2023-04-01T08:29:51;2.33;;;1.30;;
62790;SDS011;48830;53.426;10.300;2023-04-01T08:32:37;2.33;;;1.60;;
62790;SDS011;48830;53.426;10.300;2023-04-01T08:37:44;1.83;;;1.40;;
62790;SDS011;48830;53.426;10.300;2023-04-01T08:56:42;3.13;;;1.50;;
62790;SDS011;48830;53.426;10.300;2023-04-01T08:59:40;2.40;;;1.57;;
62790;SDS011;48830;53.426;10.300;2023-04-01T09:05:18;1.30;;;1.20;;
62790;SDS011;48830;53.426;10.300;2023-04-01T09:20:42;1.60;;;1.20;;
62790;SDS011;48830;53.426;10.300;2023-04-01T09:24:03;2.03;;;1.20;;
62790;SDS011;48830;53.426;10.300;2023-04-01T09:34:51;1.53;;;1.20;;
62790;SDS011;48830;53.426;10.300;2023-04-01T09:40:26;1.30;;;1.20;;
62790;SDS011;48830;53.426;10.300;2023-04-01T10:02:05;3.00;;;1.10;;
62790;SDS011;48830;53.426;10.300;2023-04-01T10:31:42;2.57;;;1.43;;
62790;SDS011;48830;53.426;10.300;2023-04-01T10:54:08;1.70;;;1.10;;
62790;SDS011;48830;53.426;10.300;2023-04-01T10:57:26;1.40;;;0.97;;
62790;SDS011;48830;53.426;10.300;2023-04-01T11:00:38;1.23;;;1.13;;
62790;SDS011;48830;53.426;10.300;2023-04-01T11:29:31;1.10;;;1.00;;
62790;SDS011;48830;53.426;10.300;2023-04-01T11:35:45;2.67;;;1.70;;
62790;SDS011;48830;53.426;10.300;2023-04-01T11:47:01;2.37;;;1.40;;
62790;SDS011;48830;53.426;10.300;2023-04-01T12:12:14;3.77;;;2.00;;
62790;SDS011;48830;53.426;10.300;2023-04-01T12:17:36;4.10;;;2.33;;
62790;SDS011;48830;53.426;10.300;2023-04-01T12:37:12;5.33;;;3.07;;
62790;SDS011;48830;53.426;10.300;2023-04-01T12:39:48;5.43;;;2.70;;
62790;SDS011;48830;53.426;10.300;2023-04-01T12:51:05;6.13;;;3.30;;
62790;SDS011;48830;53.426;10.300;2023-04-01T12:53:43;7.07;;;2.67;;
62790;SDS011;48830;53.426;10.300;2023-04-01T12:56:17;5.83;;;3.10;;
62790;SDS011;48830;53.426;10.300;2023-04-01T13:10:13;5.23;;;2.87;;
62790;SDS011;48830;53.426;10.300;2023-04-01T13:15:32;6.40;;;2.67;;
62790;SDS011;48830;53.426;10.300;2023-04-01T13:28:30;4.87;;;2.60;;
62790;SDS011;48830;53.426;10.300;2023-04-01T13:31:08;3.93;;;2.40;;
62790;SDS011;48830;53.426;10.300;2023-04-01T13:34:30;6.87;;;2.90;;
62790;SDS011;48830;53.426;10.300;2023-04-01T13:36:37;5.77;;;2.77;;
62790;SDS011;48830;53.426;10.300;2023-04-01T13:53:09;4.97;;;2.60;;
62790;SDS011;48830;53.426;10.300;2023-04-01T13:55:43;4.93;;;2.50;;
62790;SDS011;48830;53.426;10.300;2023-04-01T14:01:17;5.00;;;2.43;;
62790;SDS011;48830;53.426;10.300;2023-04-01T14:06:47;4.87;;;2.23;;
62790;SDS011;48830;53.426;10.300;2023-04-01T14:29:46;6.67;;;2.70;;
62790;SDS011;48830;53.426;10.300;2023-04-01T14:32:38;6.17;;;2.77;;
62790;SDS011;48830;53.426;10.300;2023-04-01T14:35:21;5.87;;;2.90;;
62790;SDS011;48830;53.426;10.300;2023-04-01T14:38:20;7.00;;;3.23;;
62790;SDS011;48830;53.426;10.300;2023-04-01T14:53:41;7.43;;;3.50;;
62790;SDS011;48830;53.426;10.300;2023-04-01T14:56:16;6.30;;;3.53;;
62790;SDS011;48830;53.426;10.300;2023-04-01T14:59:07;7.40;;;3.60;;
62790;SDS011;48830;53.426;10.300;2023-04-01T15:02:01;7.93;;;2.93;;
62790;SDS011;48830;53.426;10.300;2023-04-01T15:07:19;8.13;;;3.50;;
62790;SDS011;48830;53.426;10.300;2023-04-01T15:24:35;9.50;;;3.27;;
62790;SDS011;48830;53.426;10.300;2023-04-01T15:27:29;6.00;;;3.50;;
62790;SDS011;48830;53.426;10.300;2023-04-01T15:33:13;8.47;;;3.23;;
62790;SDS011;48830;53.426;10.300;2023-04-01T15:41:16;5.00;;;3.00;;
62790;SDS011;48830;53.426;10.300;2023-04-01T15:43:46;8.83;;;3.90;;
62790;SDS011;48830;53.426;10.300;2023-04-01T16:00:31;8.97;;;3.80;;
62790;SDS011;48830;53.426;10.300;2023-04-01T16:12:18;6.67;;;3.67;;
62790;SDS011;48830;53.426;10.300;2023-04-01T16:15:14;6.70;;;3.27;;
62790;SDS011;48830;53.426;10.300;2023-04-01T16:18:52;6.63;;;3.43;;
62790;SDS011;48830;53.426;10.300;2023-04-01T16:21:00;9.73;;;3.53;;
62790;SDS011;48830;53.426;10.300;2023-04-01T16:23:51;7.80;;;3.70;;
62790;SDS011;48830;53.426;10.300;2023-04-01T16:26:28;7.97;;;3.70;;
62790;SDS011;48830;53.426;10.300;2023-04-01T16:31:35;7.87;;;3.60;;
62790;SDS011;48830;53.426;10.300;2023-04-01T16:34:08;8.43;;;3.97;;
62790;SDS011;48830;53.426;10.300;2023-04-01T16:50:37;6.30;;;3.60;;
62790;SDS011;48830;53.426;10.300;2023-04-01T16:58:14;8.63;;;3.43;;
62790;SDS011;48830;53.426;10.300;2023-04-01T17:01:02;9.87;;;3.53;;
62790;SDS011;48830;53.426;10.300;2023-04-01T17:03:44;7.20;;;3.70;;
62790;SDS011;48830;53.426;10.300;2023-04-01T17:11:31;10.57;;;3.80;;
62790;SDS011;48830;53.426;10.300;2023-04-01T17:14:04;8.20;;;3.80;;
62790;SDS011;48830;53.426;10.300;2023-04-01T17:19:39;7.53;;;3.90;;
62790;SDS011;48830;53.426;10.300;2023-04-01T17:22:17;8.10;;;3.50;;
62790;SDS011;48830;53.426;10.300;2023-04-01T17:25:14;7.67;;;3.57;;
62790;SDS011;48830;53.426;10.300;2023-04-01T17:27:50;8.33;;;3.30;;
62790;SDS011;48830;53.426;10.300;2023-04-01T17:30:27;8.57;;;3.70;;
62790;SDS011;48830;53.426;10.300;2023-04-01T18:00:50;9.83;;;3.50;;
62790;SDS011;48830;53.426;10.300;2023-04-01T18:22:54;6.90;;;3.47;;
62790;SDS011;48830;53.426;10.300;2023-04-01T18:25:28;7.30;;;3.57;;
62790;SDS011;48830;53.426;10.300;2023-04-01T18:39:07;5.80;;;3.37;;
62790;SDS011;48830;53.426;10.300;2023-04-01T18:44:47;6.60;;;3.47;;
62790;SDS011;48830;53.426;10.300;2023-04-01T18:47:27;7.30;;;3.57;;
62790;SDS011;48830;53.426;10.300;2023-04-01T18:50:18;9.27;;;3.90;;
62790;SDS011;48830;53.426;10.300;2023-04-01T18:53:17;6.83;;;3.90;;
62790;SDS011;48830;53.426;10.300;2023-04-01T18:55:54;9.23;;;3.60;;
62790;SDS011;48830;53.426;10.300;2023-04-01T18:58:23;7.77;;;3.30;;
62790;SDS011;48830;53.426;10.300;2023-04-01T19:01:04;8.17;;;3.90;;
62790;SDS011;48830;53.426;10.300;2023-04-01T19:09:23;6.73;;;3.07;;
62790;SDS011;48830;53.426;10.300;2023-04-01T19:25:49;8.17;;;3.17;;
62790;SDS011;48830;53.426;10.300;2023-04-01T19:28:46;7.10;;;3.13;;
62790;SDS011;48830;53.426;10.300;2023-04-01T19:47:13;6.17;;;2.60;;
62790;SDS011;48830;53.426;10.300;2023-04-01T19:52:52;5.17;;;2.70;;
62790;SDS011;48830;53.426;10.300;2023-04-01T19:56:05;7.17;;;2.50;;
62790;SDS011;48830;53.426;10.300;2023-04-01T19:58:31;5.27;;;2.60;;
62790;SDS011;48830;53.426;10.300;2023-04-01T20:01:03;8.77;;;2.90;;
62790;SDS011;48830;53.426;10.300;2023-04-01T20:16:12;6.90;;;2.90;;
62790;SDS011;48830;53.426;10.300;2023-04-01T20:21:26;10.37;;;3.33;;
62790;SDS011;48830;53.426;10.300;2023-04-01T20:24:00;5.37;;;2.47;;
62790;SDS011;48830;53.426;10.300;2023-04-01T20:26:36;6.37;;;2.80;;
62790;SDS011;48830;53.426;10.300;2023-04-01T20:31:40;10.80;;;3.30;;
62790;SDS011;48830;53.426;10.300;2023-04-01T20:48:36;6.93;;;2.67;;
62790;SDS011;48830;53.426;10.300;2023-04-01T20:51:06;5.17;;;2.10;;
62790;SDS011;48830;53.426;10.300;2023-04-01T20:53:42;6.30;;;2.67;;
62790;SDS011;48830;53.426;10.300;2023-04-01T20:56:30;5.47;;;2.60;;
62790;SDS011;48830;53.426;10.300;2023-04-01T21:01:57;6.17;;;2.60;;
62790;SDS011;48830;53.426;10.300;2023-04-01T21:07:52;6.10;;;2.30;;
62790;SDS011;48830;53.426;10.300;2023-04-01T21:16:10;7.20;;;2.47;;
62790;SDS011;48830;53.426;10.300;2023-04-01T21:37:47;6.03;;;2.10;;
62790;SDS011;48830;53.426;10.300;2023-04-01T21:49:31;5.97;;;1.80;;
62790;SDS011;48830;53.426;10.300;2023-04-01T22:07:15;4.17;;;2.00;;
62790;SDS011;48830;53.426;10.300;2023-04-01T22:12:14;5.70;;;2.30;;
62790;SDS011;48830;53.426;10.300;2023-04-01T22:17:38;5.10;;;1.90;;
62790;SDS011;48830;53.426;10.300;2023-04-01T22:20:21;5.67;;;2.27;;
62790;SDS011;48830;53.426;10.300;2023-04-01T22:28:22;5.67;;;2.10;;
62790;SDS011;48830;53.426;10.300;2023-04-01T22:30:58;6.60;;;2.03;;
62790;SDS011;48830;53.426;10.300;2023-04-01T22:36:15;6.47;;;2.00;;
62790;SDS011;48830;53.426;10.300;2023-04-01T22:50:36;5.97;;;2.10;;
62790;SDS011;48830;53.426;10.300;2023-04-01T22:55:51;3.80;;;1.67;;
62790;SDS011;48830;53.426;10.300;2023-04-01T22:58:30;6.40;;;1.97;;
62790;SDS011;48830;53.426;10.300;2023-04-01T23:01:03;8.97;;;2.23;;
62790;SDS011;48830;53.426;10.300;2023-04-01T23:03:33;4.87;;;1.80;;
62790;SDS011;48830;53.426;10.300;2023-04-01T23:06:04;6.07;;;1.73;;
62790;SDS011;48830;53.426;10.300;2023-04-01T23:11:05;5.03;;;1.87;;
62790;SDS011;48830;53.426;10.300;2023-04-01T23:13:36;8.40;;;1.97;;
62790;SDS011;48830;53.426;10.300;2023-04-01T23:16:07;5.57;;;1.70;;
62790;SDS011;48830;53.426;10.300;2023-04-01T23:18:44;6.70;;;2.37;;
62790;SDS011;48830;53.426;10.300;2023-04-01T23:26:50;4.30;;;1.73;;
62790;SDS011;48830;53.426;10.300;2023-04-01T23:29:21;5.90;;;1.97;;
62790;SDS011;48830;53.426;10.300;2023-04-01T23:31:49;5.13;;;1.80;;
62790;SDS011;48830;53.426;10.300;2023-04-01T23:36:58;5.70;;;1.90;;
62790;SDS011;48830;53.426;10.300;2023-04-01T23:42:06;5.73;;;1.70;;
62790;SDS011;48830;53.426;10.300;2023-04-01T23:44:38;3.53;;;1.50;;
62790;SDS011;48830;53.426;10.300;2023-04-01T23:47:04;7.80;;;2.10;;
62790;SDS011;48830;53.426;10.300;2023-04-01T23:49:38;8.13;;;2.47;;
62790;SDS011;48830;53.426;10.300;2023-04-01T23:52:17;5.73;;;2.00;;
62790;SDS011;48830;53.426;10.300;2023-04-01T23:54:57;7.27;;;1.80;;
62790;SDS011;48830;53.426;10.300;2023-04-01T23:57:28;6.40;;;1.90;;
